createdAt,value
2023-05-05T00:04:00.287Z,4.63
2023-05-05T00:09:03.844Z,4.74
2023-05-05T00:14:06.546Z,4.61
2023-05-05T00:19:08.516Z,4.61
2023-05-05T00:24:12.227Z,4.69
2023-05-05T00:29:14.241Z,4.80
2023-05-05T00:34:16.188Z,4.75
2023-05-05T00:39:19.632Z,4.59
2023-05-05T00:44:34.587Z,4.42
2023-05-05T00:49:38.086Z,4.27
2023-05-05T00:54:41.584Z,4.17
2023-05-05T00:59:44.793Z,4.22
2023-05-05T01:04:46.717Z,4.16
2023-05-05T01:10:11.005Z,4.10
2023-05-05T01:15:28.628Z,4.07
2023-05-05T01:20:37.638Z,4.02
2023-05-05T01:26:06.716Z,4.05
2023-05-05T01:31:26.952Z,4.07
2023-05-05T01:36:44.373Z,4.08
2023-05-05T01:41:49.476Z,4.10
2023-05-05T01:46:52.186Z,4.29
2023-05-05T01:51:56.818Z,4.42
2023-05-05T01:56:59.579Z,4.54
2023-05-05T02:02:03.292Z,4.51
2023-05-05T02:07:08.744Z,4.40
2023-05-05T02:12:11.391Z,4.28
2023-05-05T02:17:15.932Z,4.28
2023-05-05T02:22:19.305Z,4.41
2023-05-05T02:27:22.947Z,4.41
2023-05-05T02:32:31.823Z,4.35
2023-05-05T02:37:36.816Z,4.26
2023-05-05T02:42:40.959Z,4.17
2023-05-05T02:47:43.047Z,4.04
2023-05-05T02:52:46.881Z,4.00
2023-05-05T02:58:00.708Z,4.01
2023-05-05T03:03:07.669Z,4.03
2023-05-05T03:08:16.793Z,3.88
2023-05-05T03:13:21.118Z,3.81
2023-05-05T03:18:25.029Z,3.91
2023-05-05T03:23:28.393Z,4.00
2023-05-05T03:28:30.447Z,4.09
2023-05-05T03:33:32.396Z,4.12
2023-05-05T03:38:35.682Z,4.12
2023-05-05T03:43:39.236Z,4.28
2023-05-05T03:48:41.891Z,4.33
2023-05-05T03:53:45.172Z,4.45
2023-05-05T03:58:47.096Z,4.75
2023-05-05T04:03:49.126Z,5.04
2023-05-05T04:08:52.510Z,5.29
2023-05-05T04:13:54.371Z,5.46
2023-05-05T04:18:56.396Z,5.74
2023-05-05T04:23:59.683Z,6.06
2023-05-05T04:29:01.498Z,6.30
2023-05-05T04:34:03.528Z,6.50
2023-05-05T04:39:08.655Z,6.72
2023-05-05T04:44:10.572Z,6.96
2023-05-05T04:49:12.500Z,7.16
2023-05-05T04:54:15.881Z,7.36
2023-05-05T04:59:17.949Z,7.62
2023-05-05T05:04:21.578Z,7.75
2023-05-05T05:09:24.943Z,7.86
2023-05-05T05:14:28.103Z,8.03
2023-05-05T05:19:30.173Z,8.20
2023-05-05T05:24:34.719Z,8.50
2023-05-05T05:29:36.748Z,8.94
2023-05-05T05:34:38.723Z,9.49
2023-05-05T05:39:43.542Z,10.05
2023-05-05T05:44:45.807Z,10.37
2023-05-05T05:49:47.754Z,10.46
2023-05-05T05:54:51.040Z,10.79
2023-05-05T05:59:53.881Z,11.15
2023-05-05T06:04:55.702Z,11.40
2023-05-05T06:10:01.396Z,11.51
2023-05-05T06:15:10.667Z,11.71
2023-05-05T06:20:13.902Z,11.94
2023-05-05T06:25:17.464Z,12.02
2023-05-05T06:30:19.702Z,12.14
2023-05-05T06:35:22.340Z,12.17
2023-05-05T06:40:25.573Z,12.48
2023-05-05T06:45:27.961Z,12.63
2023-05-05T06:50:30.090Z,12.68
2023-05-05T06:55:33.438Z,12.76
2023-05-05T07:00:35.500Z,12.66
2023-05-05T07:05:37.545Z,12.80
2023-05-05T07:10:40.994Z,13.15
2023-05-05T07:15:46.351Z,13.40
2023-05-05T07:20:49.004Z,13.29
2023-05-05T07:25:52.269Z,13.41
2023-05-05T07:30:54.666Z,13.65
2023-05-05T07:35:56.680Z,13.86
2023-05-05T07:41:00.064Z,14.02
2023-05-05T07:46:02.197Z,14.25
2023-05-05T07:51:04.266Z,14.42
2023-05-05T07:56:08.782Z,14.71
2023-05-05T08:01:12.715Z,14.93
2023-05-05T08:06:22.014Z,15.51
2023-05-05T08:11:27.172Z,15.55
2023-05-05T08:16:30.655Z,15.82
2023-05-05T08:21:32.603Z,15.69
2023-05-05T08:26:35.904Z,15.63
2023-05-05T08:31:38.017Z,16.06
2023-05-05T08:36:40.075Z,16.27
2023-05-05T08:41:43.476Z,16.36
2023-05-05T08:46:45.882Z,16.44
2023-05-05T08:51:48.806Z,16.15
2023-05-05T08:56:53.038Z,16.39
2023-05-05T09:01:57.173Z,16.55
2023-05-05T09:06:59.732Z,16.68
2023-05-05T09:12:03.230Z,16.50
2023-05-05T09:17:05.302Z,16.68
2023-05-05T09:22:07.374Z,16.53
2023-05-05T09:27:21.511Z,16.71
2023-05-05T09:32:24.437Z,17.13
2023-05-05T09:37:30.841Z,16.90
2023-05-05T09:42:35.754Z,16.66
2023-05-05T09:47:38.014Z,17.36
2023-05-05T09:52:40.151Z,17.29
2023-05-05T09:57:43.511Z,17.42
2023-05-05T10:02:45.996Z,17.59
2023-05-05T10:07:48.125Z,17.90
2023-05-05T10:12:53.287Z,18.04
2023-05-05T10:18:06.875Z,18.02
2023-05-05T10:23:16.475Z,18.73
2023-05-05T10:28:23.338Z,18.36
2023-05-05T10:33:33.831Z,18.26
2023-05-05T10:38:37.150Z,17.83
2023-05-05T10:43:41.730Z,17.90
2023-05-05T10:48:51.247Z,17.79
2023-05-05T10:54:00.321Z,17.84
2023-05-05T10:59:03.671Z,18.00
2023-05-05T11:04:21.823Z,18.17
2023-05-05T11:09:27.906Z,18.48
2023-05-05T11:14:31.235Z,18.00
2023-05-05T11:19:45.847Z,17.90
2023-05-05T11:24:47.920Z,17.83
2023-05-05T11:30:08.446Z,17.92
2023-05-05T11:35:11.179Z,17.72
2023-05-05T11:40:23.702Z,17.82
2023-05-05T11:45:27.014Z,18.00
2023-05-05T11:50:33.213Z,18.08
2023-05-05T11:55:35.143Z,18.25
2023-05-05T12:00:38.599Z,18.13
2023-05-05T12:05:40.873Z,18.06
2023-05-05T12:10:42.936Z,18.02
2023-05-05T12:15:46.546Z,18.26
2023-05-05T12:20:48.806Z,18.12
2023-05-05T12:25:50.878Z,18.28
2023-05-05T12:30:57.694Z,18.59
2023-05-05T12:35:59.767Z,18.55
2023-05-05T12:41:02.613Z,18.83
2023-05-05T12:46:08.286Z,18.70
2023-05-05T12:51:12.595Z,18.68
2023-05-05T12:56:34.767Z,18.41
2023-05-05T13:01:50.489Z,18.76
2023-05-05T13:07:09.925Z,18.75
2023-05-05T13:12:12.439Z,18.45
2023-05-05T13:17:15.975Z,18.65
2023-05-05T13:22:17.956Z,18.90
2023-05-05T13:27:20.326Z,19.10
2023-05-05T13:32:23.757Z,19.10
2023-05-05T13:37:25.909Z,18.88
2023-05-05T13:42:27.855Z,19.24
2023-05-05T13:47:31.203Z,19.22
2023-05-05T13:52:33.513Z,19.15
2023-05-05T13:57:35.665Z,19.18
2023-05-05T14:02:39.040Z,19.11
2023-05-05T14:07:41.173Z,19.16
2023-05-05T14:12:43.605Z,19.41
2023-05-05T14:17:46.986Z,19.53
2023-05-05T14:22:49.497Z,19.24
2023-05-05T14:27:51.597Z,19.32
2023-05-05T14:32:54.958Z,19.35
2023-05-05T14:37:56.990Z,19.43
2023-05-05T14:42:58.878Z,19.40
2023-05-05T14:48:02.339Z,19.32
2023-05-05T14:53:04.711Z,19.60
2023-05-05T14:58:06.678Z,19.52
2023-05-05T15:03:09.948Z,19.33
2023-05-05T15:08:12.477Z,19.22
2023-05-05T15:13:14.637Z,19.28
2023-05-05T15:18:18.577Z,19.25
2023-05-05T15:23:20.591Z,19.53
2023-05-05T15:28:22.551Z,19.38
2023-05-05T15:33:26.068Z,19.07
2023-05-05T15:38:29.373Z,19.27
2023-05-05T15:43:31.349Z,19.35
2023-05-05T15:48:35.655Z,19.10
2023-05-05T15:53:37.585Z,19.22
2023-05-05T15:58:39.414Z,19.55
2023-05-05T16:03:42.779Z,19.54
2023-05-05T16:08:47.570Z,19.55
2023-05-05T16:13:50.083Z,19.94
2023-05-05T16:18:53.361Z,19.32
2023-05-05T16:23:55.632Z,19.29
2023-05-05T16:28:57.673Z,18.60
2023-05-05T16:34:01.132Z,18.37
2023-05-05T16:39:03.566Z,17.94
2023-05-05T16:44:06.160Z,17.95
2023-05-05T16:49:09.470Z,18.45
2023-05-05T16:54:11.430Z,18.39
2023-05-05T16:59:15.539Z,18.20
2023-05-05T17:04:18.858Z,17.93
2023-05-05T17:09:24.806Z,18.09
2023-05-05T17:14:27.360Z,18.33
2023-05-05T17:19:30.680Z,17.46
2023-05-05T17:24:32.654Z,17.91
2023-05-05T17:29:40.416Z,17.94
2023-05-05T17:34:43.804Z,16.95
2023-05-05T17:39:45.760Z,16.11
2023-05-05T17:44:47.799Z,15.81
2023-05-05T17:49:54.082Z,15.24
2023-05-05T17:54:56.256Z,15.04
2023-05-05T17:59:58.242Z,14.71
2023-05-05T18:05:01.639Z,14.20
2023-05-05T18:10:04.226Z,13.80
2023-05-05T18:15:07.552Z,13.42
2023-05-05T18:20:11.829Z,13.07
2023-05-05T18:25:14.041Z,12.83
2023-05-05T18:30:16.285Z,12.61
2023-05-05T18:35:19.643Z,12.20
2023-05-05T18:40:21.943Z,11.88
2023-05-05T18:45:24.134Z,11.70
2023-05-05T18:50:28.010Z,11.54
2023-05-05T18:55:30.005Z,11.26
2023-05-05T19:00:32.013Z,11.11
2023-05-05T19:05:35.859Z,10.91
2023-05-05T19:10:38.101Z,10.61
2023-05-05T19:15:40.102Z,10.72
2023-05-05T19:20:43.630Z,11.38
2023-05-05T19:25:46.302Z,11.75
2023-05-05T19:30:48.742Z,12.07
2023-05-05T19:35:52.258Z,12.10
2023-05-05T19:40:54.301Z,12.25
2023-05-05T19:45:56.509Z,12.28
2023-05-05T19:50:59.950Z,12.44
2023-05-05T19:56:01.927Z,12.51
2023-05-05T20:01:03.927Z,12.74
2023-05-05T20:06:07.515Z,12.72
2023-05-05T20:11:09.530Z,12.90
2023-05-05T20:16:12.106Z,12.95
2023-05-05T20:21:16.763Z,12.94
2023-05-05T20:26:18.878Z,12.81
2023-05-05T20:31:21.118Z,12.68
2023-05-05T20:36:26.265Z,12.66
2023-05-05T20:41:28.324Z,12.72
2023-05-05T20:46:30.680Z,12.55
2023-05-05T20:51:35.058Z,12.43
2023-05-05T20:56:37.107Z,12.37
2023-05-05T21:01:39.638Z,12.24
2023-05-05T21:06:42.982Z,12.50
2023-05-05T21:11:44.948Z,12.38
2023-05-05T21:16:48.150Z,12.41
2023-05-05T21:21:51.496Z,12.52
2023-05-05T21:26:53.521Z,12.48
2023-05-05T21:31:55.494Z,12.41
2023-05-05T21:36:59.166Z,12.42
2023-05-05T21:42:01.269Z,12.43
2023-05-05T21:47:05.280Z,12.39
2023-05-05T21:52:08.634Z,12.10
2023-05-05T21:57:10.687Z,12.25
2023-05-05T22:02:12.683Z,12.10
2023-05-05T22:07:16.032Z,11.97
2023-05-05T22:12:18.096Z,11.46
2023-05-05T22:17:20.057Z,11.46
2023-05-05T22:22:23.362Z,10.93
2023-05-05T22:27:25.354Z,11.61
2023-05-05T22:32:27.367Z,12.14
2023-05-05T22:37:30.688Z,12.06
2023-05-05T22:42:32.681Z,11.46
2023-05-05T22:47:34.952Z,11.12
2023-05-05T22:52:38.412Z,10.70
2023-05-05T22:57:40.876Z,10.32
2023-05-05T23:02:42.932Z,9.79
2023-05-05T23:07:46.297Z,9.33
2023-05-05T23:12:48.289Z,8.98
2023-05-05T23:17:50.401Z,8.76
2023-05-05T23:22:53.776Z,8.45
2023-05-05T23:27:56.036Z,8.21
2023-05-05T23:32:58.086Z,8.03
2023-05-05T23:38:01.394Z,7.75
2023-05-05T23:43:03.374Z,7.57
2023-05-05T23:48:05.607Z,7.45
2023-05-05T23:53:09.597Z,7.35
2023-05-05T23:58:11.529Z,7.29
